sensor_id;sensor_type;location;lat;lon;timestamp;P1;durP1;ratioP1;P2;durP2;ratioP2
28844;SDS011;15976;47.938;7.758;2024-03-08T00:00:11;37.25;;;19.85;;
28844;SDS011;15976;47.938;7.758;2024-03-08T00:02:41;33.60;;;18.92;;
28844;SDS011;15976;47.938;7.758;2024-03-08T00:05:10;33.05;;;19.13;;
28844;SDS011;15976;47.938;7.758;2024-03-08T00:07:37;35.40;;;18.50;;
28844;SDS011;15976;47.938;7.758;2024-03-08T00:10:06;37.20;;;18.85;;
28844;SDS011;15976;47.938;7.758;2024-03-08T00:12:41;34.72;;;18.85;;
28844;SDS011;15976;47.938;7.758;2024-03-08T00:15:09;34.17;;;18.73;;
28844;SDS011;15976;47.938;7.758;2024-03-08T00:17:37;35.00;;;19.05;;
28844;SDS011;15976;47.938;7.758;2024-03-08T00:20:04;34.25;;;19.10;;
28844;SDS011;15976;47.938;7.758;2024-03-08T00:22:35;34.70;;;19.33;;
28844;SDS011;15976;47.938;7.758;2024-03-08T00:25:02;33.45;;;19.48;;
28844;SDS011;15976;47.938;7.758;2024-03-08T00:27:36;34.72;;;18.90;;
28844;SDS011;15976;47.938;7.758;2024-03-08T00:30:04;34.60;;;18.63;;
28844;SDS011;15976;47.938;7.758;2024-03-08T00:32:34;32.10;;;19.17;;
28844;SDS011;15976;47.938;7.758;2024-03-08T00:35:04;35.75;;;18.40;;
28844;SDS011;15976;47.938;7.758;2024-03-08T00:37:34;34.42;;;18.13;;
28844;SDS011;15976;47.938;7.758;2024-03-08T00:40:01;34.72;;;19.55;;
28844;SDS011;15976;47.938;7.758;2024-03-08T00:42:28;33.10;;;17.92;;
28844;SDS011;15976;47.938;7.758;2024-03-08T00:44:56;32.60;;;17.98;;
28844;SDS011;15976;47.938;7.758;2024-03-08T00:47:25;30.77;;;18.17;;
28844;SDS011;15976;47.938;7.758;2024-03-08T00:49:53;31.65;;;18.48;;
28844;SDS011;15976;47.938;7.758;2024-03-08T00:52:23;29.15;;;17.80;;
28844;SDS011;15976;47.938;7.758;2024-03-08T00:54:53;33.13;;;19.10;;
28844;SDS011;15976;47.938;7.758;2024-03-08T00:57:21;33.38;;;18.95;;
28844;SDS011;15976;47.938;7.758;2024-03-08T00:59:48;33.60;;;19.02;;
28844;SDS011;15976;47.938;7.758;2024-03-08T01:02:15;33.28;;;18.48;;
28844;SDS011;15976;47.938;7.758;2024-03-08T01:04:45;35.05;;;20.63;;
28844;SDS011;15976;47.938;7.758;2024-03-08T01:07:13;38.15;;;20.67;;
28844;SDS011;15976;47.938;7.758;2024-03-08T01:09:40;33.63;;;19.30;;
28844;SDS011;15976;47.938;7.758;2024-03-08T01:12:07;30.83;;;18.70;;
28844;SDS011;15976;47.938;7.758;2024-03-08T01:14:34;33.03;;;19.08;;
28844;SDS011;15976;47.938;7.758;2024-03-08T01:17:02;37.25;;;20.65;;
28844;SDS011;15976;47.938;7.758;2024-03-08T01:19:29;39.55;;;20.90;;
28844;SDS011;15976;47.938;7.758;2024-03-08T01:21:58;40.38;;;21.50;;
28844;SDS011;15976;47.938;7.758;2024-03-08T01:24:25;38.17;;;22.25;;
28844;SDS011;15976;47.938;7.758;2024-03-08T01:26:52;37.05;;;21.05;;
28844;SDS011;15976;47.938;7.758;2024-03-08T01:29:19;39.17;;;22.02;;
28844;SDS011;15976;47.938;7.758;2024-03-08T01:31:46;38.78;;;21.85;;
28844;SDS011;15976;47.938;7.758;2024-03-08T01:34:13;39.92;;;22.45;;
28844;SDS011;15976;47.938;7.758;2024-03-08T01:36:40;39.80;;;21.75;;
28844;SDS011;15976;47.938;7.758;2024-03-08T01:39:07;45.17;;;24.50;;
28844;SDS011;15976;47.938;7.758;2024-03-08T01:41:36;46.03;;;25.52;;
28844;SDS011;15976;47.938;7.758;2024-03-08T01:44:03;51.13;;;27.60;;
28844;SDS011;15976;47.938;7.758;2024-03-08T01:46:31;53.58;;;27.88;;
28844;SDS011;15976;47.938;7.758;2024-03-08T01:48:59;43.15;;;24.63;;
28844;SDS011;15976;47.938;7.758;2024-03-08T01:51:28;44.72;;;25.45;;
28844;SDS011;15976;47.938;7.758;2024-03-08T01:53:56;44.67;;;25.05;;
28844;SDS011;15976;47.938;7.758;2024-03-08T01:56:24;47.80;;;26.90;;
28844;SDS011;15976;47.938;7.758;2024-03-08T01:58:52;54.10;;;28.52;;
28844;SDS011;15976;47.938;7.758;2024-03-08T02:01:20;47.35;;;26.00;;
28844;SDS011;15976;47.938;7.758;2024-03-08T02:03:47;47.58;;;26.67;;
28844;SDS011;15976;47.938;7.758;2024-03-08T02:06:15;43.65;;;25.00;;
28844;SDS011;15976;47.938;7.758;2024-03-08T02:08:43;45.00;;;24.33;;
28844;SDS011;15976;47.938;7.758;2024-03-08T02:11:11;47.13;;;25.60;;
28844;SDS011;15976;47.938;7.758;2024-03-08T02:13:39;44.85;;;25.77;;
28844;SDS011;15976;47.938;7.758;2024-03-08T02:16:06;44.15;;;25.02;;
28844;SDS011;15976;47.938;7.758;2024-03-08T02:18:35;50.20;;;27.23;;
28844;SDS011;15976;47.938;7.758;2024-03-08T02:21:04;45.80;;;25.05;;
28844;SDS011;15976;47.938;7.758;2024-03-08T02:23:32;49.22;;;26.55;;
28844;SDS011;15976;47.938;7.758;2024-03-08T02:26:00;44.75;;;24.85;;
28844;SDS011;15976;47.938;7.758;2024-03-08T02:28:27;40.70;;;22.50;;
28844;SDS011;15976;47.938;7.758;2024-03-08T02:30:55;42.75;;;23.63;;
28844;SDS011;15976;47.938;7.758;2024-03-08T02:33:24;38.90;;;23.20;;
28844;SDS011;15976;47.938;7.758;2024-03-08T02:35:53;42.10;;;23.58;;
28844;SDS011;15976;47.938;7.758;2024-03-08T02:38:20;43.60;;;24.73;;
28844;SDS011;15976;47.938;7.758;2024-03-08T02:40:49;41.17;;;23.42;;
28844;SDS011;15976;47.938;7.758;2024-03-08T02:43:18;39.83;;;22.42;;
28844;SDS011;15976;47.938;7.758;2024-03-08T02:45:46;41.25;;;22.83;;
28844;SDS011;15976;47.938;7.758;2024-03-08T02:48:13;41.97;;;23.83;;
28844;SDS011;15976;47.938;7.758;2024-03-08T02:50:43;43.50;;;25.00;;
28844;SDS011;15976;47.938;7.758;2024-03-08T02:53:12;46.80;;;24.85;;
28844;SDS011;15976;47.938;7.758;2024-03-08T02:55:39;43.17;;;24.55;;
28844;SDS011;15976;47.938;7.758;2024-03-08T02:58:08;49.63;;;24.45;;
28844;SDS011;15976;47.938;7.758;2024-03-08T03:00:38;43.67;;;25.17;;
28844;SDS011;15976;47.938;7.758;2024-03-08T03:03:06;45.10;;;25.13;;
28844;SDS011;15976;47.938;7.758;2024-03-08T03:05:34;47.17;;;25.50;;
28844;SDS011;15976;47.938;7.758;2024-03-08T03:08:02;49.58;;;25.13;;
28844;SDS011;15976;47.938;7.758;2024-03-08T03:10:36;43.53;;;24.73;;
28844;SDS011;15976;47.938;7.758;2024-03-08T03:13:03;41.17;;;24.23;;
28844;SDS011;15976;47.938;7.758;2024-03-08T03:15:35;44.85;;;24.98;;
28844;SDS011;15976;47.938;7.758;2024-03-08T03:18:03;46.80;;;23.45;;
28844;SDS011;15976;47.938;7.758;2024-03-08T03:20:35;42.65;;;24.00;;
28844;SDS011;15976;47.938;7.758;2024-03-08T03:23:07;44.58;;;22.92;;
28844;SDS011;15976;47.938;7.758;2024-03-08T03:25:40;42.15;;;23.55;;
28844;SDS011;15976;47.938;7.758;2024-03-08T03:28:08;43.75;;;23.85;;
28844;SDS011;15976;47.938;7.758;2024-03-08T03:30:37;43.17;;;24.05;;
28844;SDS011;15976;47.938;7.758;2024-03-08T03:33:05;43.28;;;23.35;;
28844;SDS011;15976;47.938;7.758;2024-03-08T03:35:37;42.65;;;23.33;;
28844;SDS011;15976;47.938;7.758;2024-03-08T03:38:04;41.20;;;22.40;;
28844;SDS011;15976;47.938;7.758;2024-03-08T03:40:37;39.15;;;22.38;;
28844;SDS011;15976;47.938;7.758;2024-03-08T03:43:06;41.22;;;23.17;;
28844;SDS011;15976;47.938;7.758;2024-03-08T03:45:34;42.13;;;24.52;;
28844;SDS011;15976;47.938;7.758;2024-03-08T03:48:07;39.92;;;23.27;;
28844;SDS011;15976;47.938;7.758;2024-03-08T03:50:38;39.35;;;22.83;;
28844;SDS011;15976;47.938;7.758;2024-03-08T03:53:06;44.50;;;24.52;;
28844;SDS011;15976;47.938;7.758;2024-03-08T03:55:34;40.78;;;23.95;;
28844;SDS011;15976;47.938;7.758;2024-03-08T03:58:03;42.42;;;24.23;;
28844;SDS011;15976;47.938;7.758;2024-03-08T04:00:31;44.83;;;24.33;;
28844;SDS011;15976;47.938;7.758;2024-03-08T04:02:58;41.88;;;22.80;;
28844;SDS011;15976;47.938;7.758;2024-03-08T04:05:27;43.78;;;23.27;;
28844;SDS011;15976;47.938;7.758;2024-03-08T04:07:54;43.65;;;23.98;;
28844;SDS011;15976;47.938;7.758;2024-03-08T04:10:21;44.47;;;23.63;;
28844;SDS011;15976;47.938;7.758;2024-03-08T04:12:48;47.65;;;24.95;;
28844;SDS011;15976;47.938;7.758;2024-03-08T04:15:15;45.22;;;24.15;;
28844;SDS011;15976;47.938;7.758;2024-03-08T04:17:42;49.88;;;24.85;;
28844;SDS011;15976;47.938;7.758;2024-03-08T04:20:13;46.08;;;25.23;;
28844;SDS011;15976;47.938;7.758;2024-03-08T04:22:41;39.33;;;23.40;;
28844;SDS011;15976;47.938;7.758;2024-03-08T04:25:11;47.65;;;25.65;;
28844;SDS011;15976;47.938;7.758;2024-03-08T04:27:38;49.13;;;27.98;;
28844;SDS011;15976;47.938;7.758;2024-03-08T04:30:05;44.85;;;25.05;;
28844;SDS011;15976;47.938;7.758;2024-03-08T04:32:36;43.40;;;24.42;;
28844;SDS011;15976;47.938;7.758;2024-03-08T04:35:04;46.80;;;25.58;;
28844;SDS011;15976;47.938;7.758;2024-03-08T04:37:31;48.10;;;25.02;;
28844;SDS011;15976;47.938;7.758;2024-03-08T04:39:58;47.50;;;24.88;;
28844;SDS011;15976;47.938;7.758;2024-03-08T04:42:29;43.03;;;24.33;;
28844;SDS011;15976;47.938;7.758;2024-03-08T04:44:59;45.67;;;24.38;;
28844;SDS011;15976;47.938;7.758;2024-03-08T04:47:26;46.30;;;24.33;;
28844;SDS011;15976;47.938;7.758;2024-03-08T04:49:53;43.70;;;24.10;;
28844;SDS011;15976;47.938;7.758;2024-03-08T04:52:21;45.20;;;24.35;;
28844;SDS011;15976;47.938;7.758;2024-03-08T04:54:49;43.42;;;24.15;;
28844;SDS011;15976;47.938;7.758;2024-03-08T04:57:16;45.00;;;22.98;;
28844;SDS011;15976;47.938;7.758;2024-03-08T04:59:45;41.45;;;23.85;;
28844;SDS011;15976;47.938;7.758;2024-03-08T05:02:12;44.28;;;23.63;;
28844;SDS011;15976;47.938;7.758;2024-03-08T05:04:39;44.00;;;23.75;;
28844;SDS011;15976;47.938;7.758;2024-03-08T05:07:06;40.72;;;22.10;;
28844;SDS011;15976;47.938;7.758;2024-03-08T05:09:34;43.58;;;24.25;;
28844;SDS011;15976;47.938;7.758;2024-03-08T05:12:02;42.92;;;23.63;;
28844;SDS011;15976;47.938;7.758;2024-03-08T05:14:30;47.33;;;24.67;;
28844;SDS011;15976;47.938;7.758;2024-03-08T05:16:57;44.50;;;24.13;;
28844;SDS011;15976;47.938;7.758;2024-03-08T05:19:24;46.05;;;24.95;;
28844;SDS011;15976;47.938;7.758;2024-03-08T05:21:51;42.30;;;24.58;;
28844;SDS011;15976;47.938;7.758;2024-03-08T05:24:19;44.92;;;23.63;;
28844;SDS011;15976;47.938;7.758;2024-03-08T05:26:46;52.08;;;23.95;;
28844;SDS011;15976;47.938;7.758;2024-03-08T05:29:14;42.63;;;24.00;;
28844;SDS011;15976;47.938;7.758;2024-03-08T05:34:16;41.28;;;22.65;;
28844;SDS011;15976;47.938;7.758;2024-03-08T05:36:44;44.70;;;23.50;;
28844;SDS011;15976;47.938;7.758;2024-03-08T05:39:13;43.30;;;24.23;;
28844;SDS011;15976;47.938;7.758;2024-03-08T05:41:40;44.20;;;25.63;;
28844;SDS011;15976;47.938;7.758;2024-03-08T05:44:08;48.03;;;24.63;;
28844;SDS011;15976;47.938;7.758;2024-03-08T05:46:36;42.58;;;24.02;;
28844;SDS011;15976;47.938;7.758;2024-03-08T05:49:04;47.80;;;26.08;;
28844;SDS011;15976;47.938;7.758;2024-03-08T05:51:37;45.10;;;24.90;;
28844;SDS011;15976;47.938;7.758;2024-03-08T05:54:09;48.55;;;25.20;;
28844;SDS011;15976;47.938;7.758;2024-03-08T05:56:41;50.28;;;25.05;;
28844;SDS011;15976;47.938;7.758;2024-03-08T05:59:12;45.88;;;25.80;;
28844;SDS011;15976;47.938;7.758;2024-03-08T06:01:40;46.80;;;26.05;;
28844;SDS011;15976;47.938;7.758;2024-03-08T06:04:09;50.00;;;25.95;;
28844;SDS011;15976;47.938;7.758;2024-03-08T06:06:38;49.05;;;27.15;;
28844;SDS011;15976;47.938;7.758;2024-03-08T06:09:07;48.30;;;26.50;;
28844;SDS011;15976;47.938;7.758;2024-03-08T06:11:53;54.47;;;26.05;;
28844;SDS011;15976;47.938;7.758;2024-03-08T06:14:21;51.33;;;28.60;;
28844;SDS011;15976;47.938;7.758;2024-03-08T06:16:50;52.03;;;26.77;;
28844;SDS011;15976;47.938;7.758;2024-03-08T06:19:17;54.13;;;27.58;;
28844;SDS011;15976;47.938;7.758;2024-03-08T06:21:44;47.35;;;26.08;;
28844;SDS011;15976;47.938;7.758;2024-03-08T06:24:12;51.30;;;26.75;;
28844;SDS011;15976;47.938;7.758;2024-03-08T06:26:39;52.28;;;26.35;;
28844;SDS011;15976;47.938;7.758;2024-03-08T06:29:07;49.20;;;26.65;;
28844;SDS011;15976;47.938;7.758;2024-03-08T06:31:34;51.45;;;27.88;;
28844;SDS011;15976;47.938;7.758;2024-03-08T06:34:05;49.58;;;26.35;;
28844;SDS011;15976;47.938;7.758;2024-03-08T06:36:35;50.80;;;26.50;;
28844;SDS011;15976;47.938;7.758;2024-03-08T06:39:04;53.05;;;28.23;;
28844;SDS011;15976;47.938;7.758;2024-03-08T06:41:36;51.97;;;27.70;;
28844;SDS011;15976;47.938;7.758;2024-03-08T06:44:04;56.65;;;29.10;;
28844;SDS011;15976;47.938;7.758;2024-03-08T06:46:31;53.85;;;30.10;;
28844;SDS011;15976;47.938;7.758;2024-03-08T06:48:58;49.38;;;26.42;;
28844;SDS011;15976;47.938;7.758;2024-03-08T06:51:25;55.78;;;27.92;;
28844;SDS011;15976;47.938;7.758;2024-03-08T06:53:52;49.38;;;26.80;;
28844;SDS011;15976;47.938;7.758;2024-03-08T06:56:20;50.97;;;27.88;;
28844;SDS011;15976;47.938;7.758;2024-03-08T06:58:48;57.55;;;29.77;;
28844;SDS011;15976;47.938;7.758;2024-03-08T07:01:15;58.67;;;31.88;;
28844;SDS011;15976;47.938;7.758;2024-03-08T07:03:43;74.03;;;38.45;;
28844;SDS011;15976;47.938;7.758;2024-03-08T07:06:11;71.43;;;39.65;;
28844;SDS011;15976;47.938;7.758;2024-03-08T07:08:39;86.15;;;44.85;;
28844;SDS011;15976;47.938;7.758;2024-03-08T07:11:06;74.90;;;40.95;;
28844;SDS011;15976;47.938;7.758;2024-03-08T07:13:34;91.78;;;49.58;;
28844;SDS011;15976;47.938;7.758;2024-03-08T07:16:01;83.93;;;48.17;;
28844;SDS011;15976;47.938;7.758;2024-03-08T07:18:28;129.55;;;72.35;;
28844;SDS011;15976;47.938;7.758;2024-03-08T07:20:57;105.70;;;55.95;;
28844;SDS011;15976;47.938;7.758;2024-03-08T07:23:24;90.72;;;49.63;;
28844;SDS011;15976;47.938;7.758;2024-03-08T07:26:10;106.30;;;55.65;;
28844;SDS011;15976;47.938;7.758;2024-03-08T07:28:37;92.18;;;49.33;;
28844;SDS011;15976;47.938;7.758;2024-03-08T07:31:05;86.10;;;46.55;;
28844;SDS011;15976;47.938;7.758;2024-03-08T07:33:44;83.85;;;42.30;;
28844;SDS011;15976;47.938;7.758;2024-03-08T07:36:11;73.63;;;41.38;;
28844;SDS011;15976;47.938;7.758;2024-03-08T07:38:38;67.07;;;38.40;;
28844;SDS011;15976;47.938;7.758;2024-03-08T07:41:06;58.92;;;33.05;;
28844;SDS011;15976;47.938;7.758;2024-03-08T07:43:33;75.03;;;39.20;;
28844;SDS011;15976;47.938;7.758;2024-03-08T07:46:00;73.28;;;39.92;;
28844;SDS011;15976;47.938;7.758;2024-03-08T07:48:27;88.20;;;51.78;;
28844;SDS011;15976;47.938;7.758;2024-03-08T07:50:55;76.63;;;42.65;;
28844;SDS011;15976;47.938;7.758;2024-03-08T07:53:23;69.65;;;41.08;;
28844;SDS011;15976;47.938;7.758;2024-03-08T07:55:53;68.15;;;36.72;;
28844;SDS011;15976;47.938;7.758;2024-03-08T07:58:20;61.40;;;35.50;;
28844;SDS011;15976;47.938;7.758;2024-03-08T08:00:47;60.72;;;32.97;;
28844;SDS011;15976;47.938;7.758;2024-03-08T08:03:15;55.20;;;31.90;;
28844;SDS011;15976;47.938;7.758;2024-03-08T08:05:42;57.85;;;31.88;;
28844;SDS011;15976;47.938;7.758;2024-03-08T08:08:09;56.15;;;30.88;;
28844;SDS011;15976;47.938;7.758;2024-03-08T08:10:38;52.45;;;29.58;;
28844;SDS011;15976;47.938;7.758;2024-03-08T08:13:05;49.55;;;29.25;;
28844;SDS011;15976;47.938;7.758;2024-03-08T08:15:33;49.88;;;28.90;;
28844;SDS011;15976;47.938;7.758;2024-03-08T08:18:01;48.30;;;28.20;;
28844;SDS011;15976;47.938;7.758;2024-03-08T08:20:33;52.92;;;28.90;;
28844;SDS011;15976;47.938;7.758;2024-03-08T08:23:00;52.72;;;30.38;;
28844;SDS011;15976;47.938;7.758;2024-03-08T08:25:28;49.67;;;28.38;;
28844;SDS011;15976;47.938;7.758;2024-03-08T08:27:55;47.75;;;28.15;;
28844;SDS011;15976;47.938;7.758;2024-03-08T08:30:22;49.63;;;28.45;;
28844;SDS011;15976;47.938;7.758;2024-03-08T08:32:49;50.78;;;28.08;;
28844;SDS011;15976;47.938;7.758;2024-03-08T08:35:16;48.25;;;27.45;;
28844;SDS011;15976;47.938;7.758;2024-03-08T08:37:46;52.60;;;28.10;;
28844;SDS011;15976;47.938;7.758;2024-03-08T08:40:13;52.42;;;28.85;;
28844;SDS011;15976;47.938;7.758;2024-03-08T08:42:44;49.22;;;26.83;;
28844;SDS011;15976;47.938;7.758;2024-03-08T08:45:15;50.65;;;28.60;;
28844;SDS011;15976;47.938;7.758;2024-03-08T08:47:50;50.00;;;27.48;;
28844;SDS011;15976;47.938;7.758;2024-03-08T08:50:17;52.75;;;28.25;;
28844;SDS011;15976;47.938;7.758;2024-03-08T08:55:17;50.05;;;27.95;;
28844;SDS011;15976;47.938;7.758;2024-03-08T08:57:48;45.38;;;26.58;;
28844;SDS011;15976;47.938;7.758;2024-03-08T09:00:16;50.00;;;27.02;;
28844;SDS011;15976;47.938;7.758;2024-03-08T09:02:45;42.00;;;24.83;;
28844;SDS011;15976;47.938;7.758;2024-03-08T09:05:12;41.92;;;23.70;;
28844;SDS011;15976;47.938;7.758;2024-03-08T09:07:43;42.80;;;23.90;;
28844;SDS011;15976;47.938;7.758;2024-03-08T09:10:11;45.72;;;25.52;;
28844;SDS011;15976;47.938;7.758;2024-03-08T09:12:41;43.38;;;23.67;;
28844;SDS011;15976;47.938;7.758;2024-03-08T09:15:09;50.45;;;27.02;;
28844;SDS011;15976;47.938;7.758;2024-03-08T09:17:38;44.13;;;25.85;;
28844;SDS011;15976;47.938;7.758;2024-03-08T09:20:06;53.08;;;26.90;;
28844;SDS011;15976;47.938;7.758;2024-03-08T09:22:35;47.95;;;27.05;;
28844;SDS011;15976;47.938;7.758;2024-03-08T09:25:04;45.00;;;26.58;;
28844;SDS011;15976;47.938;7.758;2024-03-08T09:27:32;46.17;;;26.15;;
28844;SDS011;15976;47.938;7.758;2024-03-08T09:30:04;50.60;;;27.95;;
28844;SDS011;15976;47.938;7.758;2024-03-08T09:32:34;53.50;;;28.60;;
28844;SDS011;15976;47.938;7.758;2024-03-08T09:39:15;48.33;;;28.67;;
28844;SDS011;15976;47.938;7.758;2024-03-08T09:41:43;51.78;;;28.70;;
28844;SDS011;15976;47.938;7.758;2024-03-08T09:44:10;55.92;;;31.48;;
28844;SDS011;15976;47.938;7.758;2024-03-08T09:46:37;55.92;;;31.02;;
28844;SDS011;15976;47.938;7.758;2024-03-08T09:49:06;54.60;;;30.70;;
28844;SDS011;15976;47.938;7.758;2024-03-08T09:51:34;61.53;;;33.15;;
28844;SDS011;15976;47.938;7.758;2024-03-08T09:54:02;58.83;;;31.95;;
28844;SDS011;15976;47.938;7.758;2024-03-08T09:56:42;62.97;;;33.75;;
28844;SDS011;15976;47.938;7.758;2024-03-08T09:59:11;63.03;;;34.08;;
28844;SDS011;15976;47.938;7.758;2024-03-08T10:01:38;65.20;;;35.25;;
28844;SDS011;15976;47.938;7.758;2024-03-08T10:04:05;64.07;;;32.75;;
28844;SDS011;15976;47.938;7.758;2024-03-08T10:06:33;57.33;;;32.80;;
28844;SDS011;15976;47.938;7.758;2024-03-08T10:09:00;58.25;;;30.90;;
28844;SDS011;15976;47.938;7.758;2024-03-08T10:11:28;58.45;;;33.30;;
28844;SDS011;15976;47.938;7.758;2024-03-08T10:13:55;60.67;;;33.45;;
28844;SDS011;15976;47.938;7.758;2024-03-08T10:16:23;57.35;;;31.83;;
28844;SDS011;15976;47.938;7.758;2024-03-08T10:18:52;62.25;;;33.40;;
28844;SDS011;15976;47.938;7.758;2024-03-08T10:21:20;56.80;;;32.00;;
28844;SDS011;15976;47.938;7.758;2024-03-08T10:23:47;59.25;;;32.58;;
28844;SDS011;15976;47.938;7.758;2024-03-08T10:26:17;56.08;;;31.92;;
28844;SDS011;15976;47.938;7.758;2024-03-08T10:28:47;59.85;;;32.85;;
28844;SDS011;15976;47.938;7.758;2024-03-08T10:31:16;60.85;;;32.83;;
28844;SDS011;15976;47.938;7.758;2024-03-08T10:33:45;59.78;;;31.52;;
28844;SDS011;15976;47.938;7.758;2024-03-08T10:36:13;55.47;;;32.17;;
28844;SDS011;15976;47.938;7.758;2024-03-08T10:38:42;62.38;;;33.17;;
28844;SDS011;15976;47.938;7.758;2024-03-08T10:41:14;58.05;;;32.67;;
28844;SDS011;15976;47.938;7.758;2024-03-08T10:46:17;61.05;;;32.00;;
28844;SDS011;15976;47.938;7.758;2024-03-08T10:48:59;60.33;;;32.63;;
28844;SDS011;15976;47.938;7.758;2024-03-08T10:51:31;57.85;;;31.77;;
28844;SDS011;15976;47.938;7.758;2024-03-08T10:53:59;58.08;;;32.22;;
28844;SDS011;15976;47.938;7.758;2024-03-08T10:56:29;62.72;;;33.10;;
28844;SDS011;15976;47.938;7.758;2024-03-08T10:58:56;60.97;;;32.63;;
28844;SDS011;15976;47.938;7.758;2024-03-08T11:01:24;55.90;;;31.90;;
28844;SDS011;15976;47.938;7.758;2024-03-08T11:03:52;59.15;;;32.90;;
28844;SDS011;15976;47.938;7.758;2024-03-08T11:06:30;59.90;;;32.22;;
28844;SDS011;15976;47.938;7.758;2024-03-08T11:12:18;55.85;;;32.15;;
28844;SDS011;15976;47.938;7.758;2024-03-08T11:14:52;59.22;;;32.25;;
28844;SDS011;15976;47.938;7.758;2024-03-08T11:20:00;59.05;;;32.35;;
28844;SDS011;15976;47.938;7.758;2024-03-08T11:22:29;56.50;;;32.35;;
28844;SDS011;15976;47.938;7.758;2024-03-08T11:25:01;63.17;;;33.03;;
28844;SDS011;15976;47.938;7.758;2024-03-08T11:27:38;59.08;;;31.73;;
28844;SDS011;15976;47.938;7.758;2024-03-08T11:30:05;54.10;;;29.40;;
28844;SDS011;15976;47.938;7.758;2024-03-08T11:32:45;56.03;;;30.65;;
28844;SDS011;15976;47.938;7.758;2024-03-08T11:35:19;57.30;;;31.92;;
28844;SDS011;15976;47.938;7.758;2024-03-08T11:37:47;54.90;;;31.67;;
28844;SDS011;15976;47.938;7.758;2024-03-08T11:40:15;49.67;;;29.05;;
28844;SDS011;15976;47.938;7.758;2024-03-08T11:42:46;53.42;;;29.52;;
28844;SDS011;15976;47.938;7.758;2024-03-08T11:45:15;52.47;;;31.73;;
28844;SDS011;15976;47.938;7.758;2024-03-08T11:47:44;53.67;;;30.85;;
28844;SDS011;15976;47.938;7.758;2024-03-08T11:50:17;48.78;;;30.52;;
28844;SDS011;15976;47.938;7.758;2024-03-08T11:52:47;53.20;;;30.05;;
28844;SDS011;15976;47.938;7.758;2024-03-08T11:55:15;51.58;;;28.55;;
28844;SDS011;15976;47.938;7.758;2024-03-08T11:57:47;49.45;;;28.75;;
28844;SDS011;15976;47.938;7.758;2024-03-08T12:00:15;46.95;;;26.90;;
28844;SDS011;15976;47.938;7.758;2024-03-08T12:03:01;48.50;;;27.48;;
28844;SDS011;15976;47.938;7.758;2024-03-08T12:05:32;51.85;;;28.67;;
28844;SDS011;15976;47.938;7.758;2024-03-08T12:08:00;47.22;;;26.45;;
28844;SDS011;15976;47.938;7.758;2024-03-08T12:10:34;45.80;;;25.58;;
28844;SDS011;15976;47.938;7.758;2024-03-08T12:13:02;43.90;;;25.75;;
28844;SDS011;15976;47.938;7.758;2024-03-08T12:15:37;42.35;;;25.95;;
28844;SDS011;15976;47.938;7.758;2024-03-08T12:18:06;43.88;;;25.42;;
28844;SDS011;15976;47.938;7.758;2024-03-08T12:20:34;44.47;;;27.30;;
28844;SDS011;15976;47.938;7.758;2024-03-08T12:23:01;47.65;;;25.45;;
28844;SDS011;15976;47.938;7.758;2024-03-08T12:25:32;44.30;;;25.73;;
28844;SDS011;15976;47.938;7.758;2024-03-08T12:28:09;47.30;;;25.83;;
28844;SDS011;15976;47.938;7.758;2024-03-08T12:30:50;42.33;;;25.58;;
28844;SDS011;15976;47.938;7.758;2024-03-08T12:33:23;41.30;;;24.38;;
28844;SDS011;15976;47.938;7.758;2024-03-08T12:35:54;40.60;;;24.77;;
28844;SDS011;15976;47.938;7.758;2024-03-08T12:38:23;41.70;;;24.80;;
28844;SDS011;15976;47.938;7.758;2024-03-08T12:40:58;43.63;;;24.30;;
28844;SDS011;15976;47.938;7.758;2024-03-08T12:43:27;34.30;;;21.73;;
28844;SDS011;15976;47.938;7.758;2024-03-08T12:45:58;39.28;;;22.55;;
28844;SDS011;15976;47.938;7.758;2024-03-08T12:48:25;34.13;;;20.83;;
28844;SDS011;15976;47.938;7.758;2024-03-08T12:50:52;37.42;;;20.52;;
28844;SDS011;15976;47.938;7.758;2024-03-08T12:53:21;33.80;;;21.00;;
28844;SDS011;15976;47.938;7.758;2024-03-08T12:55:50;34.28;;;20.67;;
28844;SDS011;15976;47.938;7.758;2024-03-08T12:58:18;35.72;;;21.30;;
28844;SDS011;15976;47.938;7.758;2024-03-08T13:00:46;28.33;;;18.50;;
28844;SDS011;15976;47.938;7.758;2024-03-08T13:03:19;30.83;;;19.92;;
28844;SDS011;15976;47.938;7.758;2024-03-08T13:05:47;31.70;;;19.67;;
28844;SDS011;15976;47.938;7.758;2024-03-08T13:08:15;31.75;;;19.95;;
28844;SDS011;15976;47.938;7.758;2024-03-08T13:10:42;31.05;;;19.48;;
28844;SDS011;15976;47.938;7.758;2024-03-08T13:13:10;33.28;;;19.42;;
28844;SDS011;15976;47.938;7.758;2024-03-08T13:15:44;29.73;;;19.45;;
28844;SDS011;15976;47.938;7.758;2024-03-08T13:18:11;32.10;;;19.50;;
28844;SDS011;15976;47.938;7.758;2024-03-08T13:20:39;26.98;;;17.70;;
28844;SDS011;15976;47.938;7.758;2024-03-08T13:23:13;27.88;;;18.30;;
28844;SDS011;15976;47.938;7.758;2024-03-08T13:25:41;29.52;;;17.63;;
28844;SDS011;15976;47.938;7.758;2024-03-08T13:28:08;26.42;;;16.95;;
28844;SDS011;15976;47.938;7.758;2024-03-08T13:30:35;26.90;;;17.98;;
28844;SDS011;15976;47.938;7.758;2024-03-08T13:33:03;24.50;;;16.98;;
28844;SDS011;15976;47.938;7.758;2024-03-08T13:35:31;26.00;;;17.88;;
28844;SDS011;15976;47.938;7.758;2024-03-08T13:37:59;28.15;;;18.88;;
28844;SDS011;15976;47.938;7.758;2024-03-08T13:40:29;29.38;;;19.65;;
28844;SDS011;15976;47.938;7.758;2024-03-08T13:42:57;27.67;;;19.73;;
28844;SDS011;15976;47.938;7.758;2024-03-08T13:45:28;27.58;;;19.08;;
28844;SDS011;15976;47.938;7.758;2024-03-08T13:47:55;27.25;;;19.20;;
28844;SDS011;15976;47.938;7.758;2024-03-08T13:50:22;27.58;;;19.48;;
28844;SDS011;15976;47.938;7.758;2024-03-08T13:52:50;28.38;;;18.27;;
28844;SDS011;15976;47.938;7.758;2024-03-08T13:55:20;29.70;;;19.67;;
28844;SDS011;15976;47.938;7.758;2024-03-08T13:57:54;26.75;;;19.65;;
28844;SDS011;15976;47.938;7.758;2024-03-08T14:00:24;25.58;;;18.15;;
28844;SDS011;15976;47.938;7.758;2024-03-08T14:02:54;26.27;;;17.73;;
28844;SDS011;15976;47.938;7.758;2024-03-08T14:05:21;26.73;;;18.73;;
28844;SDS011;15976;47.938;7.758;2024-03-08T14:07:49;26.88;;;19.55;;
28844;SDS011;15976;47.938;7.758;2024-03-08T14:10:16;24.92;;;17.42;;
28844;SDS011;15976;47.938;7.758;2024-03-08T14:12:49;26.05;;;17.90;;
28844;SDS011;15976;47.938;7.758;2024-03-08T14:15:17;27.17;;;18.45;;
28844;SDS011;15976;47.938;7.758;2024-03-08T14:17:44;27.98;;;18.00;;
28844;SDS011;15976;47.938;7.758;2024-03-08T14:20:13;26.90;;;17.30;;
28844;SDS011;15976;47.938;7.758;2024-03-08T14:22:41;26.30;;;18.33;;
28844;SDS011;15976;47.938;7.758;2024-03-08T14:25:08;25.58;;;17.90;;
28844;SDS011;15976;47.938;7.758;2024-03-08T14:27:45;27.42;;;18.35;;
28844;SDS011;15976;47.938;7.758;2024-03-08T14:30:13;28.98;;;19.02;;
28844;SDS011;15976;47.938;7.758;2024-03-08T14:32:46;28.27;;;19.00;;
28844;SDS011;15976;47.938;7.758;2024-03-08T14:35:14;28.15;;;18.33;;
28844;SDS011;15976;47.938;7.758;2024-03-08T14:37:41;27.23;;;17.88;;
28844;SDS011;15976;47.938;7.758;2024-03-08T14:40:10;30.40;;;19.95;;
28844;SDS011;15976;47.938;7.758;2024-03-08T14:42:37;30.80;;;18.20;;
28844;SDS011;15976;47.938;7.758;2024-03-08T14:45:09;28.87;;;18.37;;
28844;SDS011;15976;47.938;7.758;2024-03-08T14:47:36;30.23;;;19.63;;